EBCI/CRL METAR and TAF weather

Enter ICAO airport designator
Station Type Date Time Source
EBCI METAR 2019/07/20 20:20 UTC NOAA

EBCI 202020Z 28005KT 240V310 9999 FEW030 19/13 Q1015 NOSIG


Station Type Date Time Source
EBCI Decoded METAR 2019/07/20 20:20 UTC NOAA

Charleroi / Gosselies, Belgium (EBCI) 50-28N 004-27E 192M
Jul 20, 2019 - 04:20 PM EDT / 2019.07.20 2020 UTC
Wind: from the W (280 degrees) at 6 MPH (5 KT) (direction variable):0
Visibility: greater than 7 mile(s):0
Sky conditions: mostly clear
Temperature: 66 F (19 C)
Dew Point: 55 F (13 C)
Relative Humidity: 68%
Pressure (altimeter): 29.97 in. Hg (1015 hPa)
ob: EBCI 202020Z 28005KT 240V310 9999 FEW030 19/13 Q1015 NOSIG
cycle: 20

Station Type Date Time Source
EBCI TAF 2019/07/20 18:27 UTC NOAA

TAF EBCI 201720Z 2018/2124 24010KT 9999 FEW034 PROB30
TEMPO 2104/2107 4500 BR BKN007

Example: see airport list